createdAt,value
2019-05-03T00:02:03.159Z,17.56
2019-05-03T00:04:31.668Z,17.99
2019-05-03T00:06:59.967Z,17.94
2019-05-03T00:09:28.251Z,17.48
2019-05-03T00:11:56.542Z,17.84
2019-05-03T00:14:25.460Z,17.93
2019-05-03T00:16:53.728Z,18.19
2019-05-03T00:19:22.054Z,18.18
2019-05-03T00:21:50.238Z,18.35
2019-05-03T00:24:18.536Z,18.09
2019-05-03T00:26:46.886Z,17.80
2019-05-03T00:29:15.134Z,18.51
2019-05-03T00:31:43.394Z,18.31
2019-05-03T00:34:13.295Z,18.59
2019-05-03T00:36:43.192Z,18.03
2019-05-03T00:39:13.114Z,18.32
2019-05-03T00:41:42.577Z,18.57
2019-05-03T00:44:11.577Z,18.44
2019-05-03T00:46:39.846Z,18.43
2019-05-03T00:49:08.133Z,18.21
2019-05-03T00:51:36.402Z,18.14
2019-05-03T00:54:04.746Z,18.09
2019-05-03T00:56:33.135Z,18.42
2019-05-03T00:59:02.229Z,18.07
2019-05-03T01:01:32.066Z,18.68
2019-05-03T01:04:01.835Z,18.15
2019-05-03T01:06:31.835Z,18.14
2019-05-03T01:09:02.648Z,17.65
2019-05-03T01:11:32.409Z,18.29
2019-05-03T01:14:02.268Z,18.16
2019-05-03T01:16:31.845Z,18.01
2019-05-03T01:19:00.355Z,18.31
2019-05-03T01:21:28.626Z,18.13
2019-05-03T01:23:56.884Z,18.02
2019-05-03T01:26:25.152Z,18.09
2019-05-03T01:28:53.455Z,18.08
2019-05-03T01:31:22.868Z,18.54
2019-05-03T01:33:51.755Z,18.57
2019-05-03T01:36:20.266Z,18.26
2019-05-03T01:38:48.575Z,18.22
2019-05-03T01:41:16.839Z,18.63
2019-05-03T01:43:45.122Z,17.90
2019-05-03T01:46:13.385Z,18.21
2019-05-03T01:48:52.111Z,17.48
2019-05-03T01:51:22.031Z,17.85
2019-05-03T01:53:52.325Z,17.74
2019-05-03T01:56:22.316Z,17.46
2019-05-03T01:58:52.265Z,17.30
2019-05-03T02:01:34.305Z,17.66
2019-05-03T02:04:16.228Z,17.19
2019-05-03T02:06:44.508Z,17.57
2019-05-03T02:09:12.769Z,17.30
2019-05-03T02:11:42.103Z,16.77
2019-05-03T02:14:12.223Z,16.63
2019-05-03T02:16:42.038Z,16.70
2019-05-03T02:19:12.500Z,16.14
2019-05-03T02:21:41.688Z,16.29
2019-05-03T02:24:11.753Z,16.66
2019-05-03T02:26:39.981Z,16.01
2019-05-03T02:29:08.257Z,16.24
2019-05-03T02:31:37.508Z,16.74
2019-05-03T02:34:05.766Z,16.20
2019-05-03T02:36:34.088Z,16.30
2019-05-03T02:39:03.027Z,16.01
2019-05-03T02:41:31.351Z,16.40
2019-05-03T02:44:00.738Z,16.34
2019-05-03T02:46:35.852Z,16.24
2019-05-03T02:49:06.395Z,15.92
2019-05-03T02:51:36.028Z,16.37
2019-05-03T02:54:05.599Z,16.57
2019-05-03T02:56:35.706Z,16.10
2019-05-03T02:59:06.188Z,16.61
2019-05-03T03:01:35.939Z,16.21
2019-05-03T03:04:05.835Z,16.50
2019-05-03T03:06:36.649Z,16.30
2019-05-03T03:09:06.212Z,16.16
2019-05-03T03:11:37.294Z,16.38
2019-05-03T03:14:06.108Z,16.29
2019-05-03T03:16:36.110Z,16.05
2019-05-03T03:19:06.720Z,16.40
2019-05-03T03:21:37.886Z,15.82
2019-05-03T03:24:11.617Z,15.91
2019-05-03T03:26:43.125Z,15.93
2019-05-03T03:29:12.681Z,16.07
2019-05-03T03:31:58.065Z,16.17
2019-05-03T03:34:29.082Z,16.39
2019-05-03T03:37:04.463Z,15.97
2019-05-03T03:39:27.533Z,16.06
2019-05-03T03:41:56.256Z,16.28
2019-05-03T03:44:25.693Z,16.35
2019-05-03T03:46:57.409Z,16.24
2019-05-03T03:49:28.576Z,16.21
2019-05-03T03:51:58.162Z,15.99
2019-05-03T03:54:26.434Z,15.57
2019-05-03T03:57:03.376Z,16.17
2019-05-03T03:59:26.970Z,16.04
2019-05-03T04:01:55.519Z,15.92
2019-05-03T04:04:25.990Z,16.05
2019-05-03T04:06:58.489Z,16.37
2019-05-03T04:09:25.533Z,16.57
2019-05-03T04:11:56.629Z,16.46
2019-05-03T04:14:26.023Z,16.71
2019-05-03T04:16:56.357Z,16.42
2019-05-03T04:19:36.345Z,16.39
2019-05-03T04:22:05.898Z,16.87
2019-05-03T04:24:35.274Z,16.04
2019-05-03T04:27:18.005Z,15.93
2019-05-03T04:29:37.811Z,16.33
2019-05-03T04:32:08.013Z,16.62
2019-05-03T04:34:36.691Z,16.31
2019-05-03T04:37:05.671Z,15.98
2019-05-03T04:39:35.971Z,15.71
2019-05-03T04:42:06.776Z,15.89
2019-05-03T04:44:35.750Z,16.47
2019-05-03T04:47:06.910Z,15.79
2019-05-03T04:49:36.243Z,16.24
2019-05-03T04:52:05.792Z,16.15
2019-05-03T04:54:36.085Z,16.20
2019-05-03T04:57:06.547Z,15.70
2019-05-03T04:59:35.874Z,16.10
2019-05-03T05:02:06.128Z,16.24
2019-05-03T05:04:35.695Z,15.99
2019-05-03T05:07:06.254Z,16.02
2019-05-03T05:09:35.102Z,16.35
2019-05-03T05:12:05.751Z,16.56
2019-05-03T05:14:35.286Z,15.83
2019-05-03T05:17:06.073Z,15.75
2019-05-03T05:19:41.453Z,16.52
2019-05-03T05:22:12.282Z,16.16
2019-05-03T05:24:40.556Z,16.72
2019-05-03T05:27:25.754Z,15.98
2019-05-03T05:29:55.416Z,15.70
2019-05-03T05:32:24.770Z,15.78
2019-05-03T05:34:54.938Z,15.82
2019-05-03T05:37:24.995Z,15.46
2019-05-03T05:39:55.079Z,15.88
2019-05-03T05:42:25.094Z,15.68
2019-05-03T05:44:55.539Z,16.05
2019-05-03T05:47:40.144Z,16.25
2019-05-03T05:50:10.210Z,16.77
2019-05-03T05:52:38.509Z,16.36
2019-05-03T05:55:11.765Z,17.13
2019-05-03T05:57:47.694Z,17.34
2019-05-03T06:00:17.753Z,16.44
2019-05-03T06:02:46.018Z,16.72
2019-05-03T06:05:14.822Z,16.90
2019-05-03T06:08:01.003Z,17.49
2019-05-03T06:10:34.801Z,16.37
2019-05-03T06:13:11.470Z,15.78
2019-05-03T06:15:57.844Z,16.60
2019-05-03T06:18:31.470Z,15.96
2019-05-03T06:21:01.519Z,16.27
2019-05-03T06:23:31.426Z,16.32
2019-05-03T06:26:00.176Z,16.52
2019-05-03T06:28:35.217Z,16.58
2019-05-03T06:31:19.306Z,17.15
2019-05-03T06:33:46.806Z,17.05
2019-05-03T06:36:15.352Z,16.84
2019-05-03T06:38:44.715Z,17.11
2019-05-03T06:41:14.863Z,16.70
2019-05-03T06:43:47.327Z,16.77
2019-05-03T06:46:16.341Z,16.93
2019-05-03T06:48:44.419Z,17.39
2019-05-03T06:51:17.877Z,17.40
2019-05-03T06:53:49.066Z,17.43
2019-05-03T06:56:14.739Z,17.91
2019-05-03T06:58:49.857Z,16.99
2019-05-03T07:01:21.583Z,17.80
2019-05-03T07:04:08.587Z,17.87
2019-05-03T07:06:41.028Z,17.81
2019-05-03T07:09:11.106Z,17.59
2019-05-03T07:11:39.360Z,17.30
2019-05-03T07:14:07.649Z,17.52
2019-05-03T07:16:35.913Z,17.08
2019-05-03T07:19:04.530Z,16.77
2019-05-03T07:21:35.420Z,16.97
2019-05-03T07:24:05.394Z,17.00
2019-05-03T07:26:34.367Z,17.28
2019-05-03T07:29:04.813Z,16.85
2019-05-03T07:31:32.743Z,17.53
2019-05-03T07:34:01.084Z,17.48
2019-05-03T07:36:29.430Z,17.12
2019-05-03T07:38:57.707Z,16.83
2019-05-03T07:41:28.049Z,17.77
2019-05-03T07:43:56.312Z,17.99
2019-05-03T07:46:25.630Z,18.55
2019-05-03T07:48:54.827Z,18.83
2019-05-03T07:51:24.886Z,18.32
2019-05-03T07:53:55.382Z,18.71
2019-05-03T07:56:25.481Z,18.13
2019-05-03T07:59:02.841Z,17.81
2019-05-03T08:01:26.330Z,18.43
2019-05-03T08:03:55.177Z,18.56
2019-05-03T08:06:24.677Z,18.03
2019-05-03T08:08:54.529Z,17.89
2019-05-03T08:11:24.740Z,17.86
2019-05-03T08:13:54.903Z,17.68
2019-05-03T08:16:25.090Z,17.69
2019-05-03T08:18:55.606Z,17.17
2019-05-03T08:21:25.234Z,17.02
2019-05-03T08:23:55.601Z,17.70
2019-05-03T08:26:25.691Z,17.13
2019-05-03T08:28:54.548Z,17.63
2019-05-03T08:31:27.155Z,17.48
2019-05-03T08:33:57.138Z,17.63
2019-05-03T08:36:25.388Z,17.68
2019-05-03T08:38:56.096Z,17.59
2019-05-03T08:41:25.664Z,18.26
2019-05-03T08:43:54.983Z,18.05
2019-05-03T08:46:25.316Z,18.58
2019-05-03T08:48:54.807Z,17.80
2019-05-03T08:51:24.980Z,18.08
2019-05-03T08:53:55.970Z,17.26
2019-05-03T08:56:24.711Z,18.21
2019-05-03T08:58:52.988Z,18.66
2019-05-03T09:01:22.303Z,18.34
2019-05-03T09:03:50.570Z,17.97
2019-05-03T09:06:18.843Z,18.12
2019-05-03T09:08:47.117Z,18.21
2019-05-03T09:11:17.053Z,18.40
2019-05-03T09:13:46.971Z,19.21
2019-05-03T09:16:15.326Z,18.86
2019-05-03T09:18:45.424Z,18.77
2019-05-03T09:21:14.795Z,18.17
2019-05-03T09:23:45.079Z,19.21
2019-05-03T09:26:15.131Z,19.58
2019-05-03T09:28:45.237Z,19.45
2019-05-03T09:31:14.876Z,20.34
2019-05-03T09:33:45.134Z,19.95
2019-05-03T09:36:14.724Z,19.54
2019-05-03T09:38:45.536Z,19.96
2019-05-03T09:41:15.095Z,19.55
2019-05-03T09:43:45.037Z,19.64
2019-05-03T09:46:14.548Z,19.65
2019-05-03T09:48:45.118Z,19.22
2019-05-03T09:51:14.765Z,19.82
2019-05-03T09:53:55.483Z,19.23
2019-05-03T09:56:53.445Z,19.75
2019-05-03T09:59:11.438Z,19.64
2019-05-03T10:01:39.695Z,20.00
2019-05-03T10:04:07.963Z,19.34
2019-05-03T10:06:36.258Z,20.45
2019-05-03T10:09:05.924Z,19.38
2019-05-03T10:11:35.123Z,19.62
2019-05-03T10:14:04.672Z,19.89
2019-05-03T10:16:35.147Z,19.98
2019-05-03T10:19:03.441Z,19.17
2019-05-03T10:21:35.451Z,20.18
2019-05-03T10:24:05.573Z,20.09
2019-05-03T10:26:35.468Z,20.96
2019-05-03T10:29:05.482Z,19.65
2019-05-03T10:31:38.437Z,20.06
2019-05-03T10:34:07.780Z,19.19
2019-05-03T10:36:38.127Z,18.82
2019-05-03T10:39:06.400Z,20.59
2019-05-03T10:41:34.938Z,21.00
2019-05-03T10:44:03.281Z,20.79
2019-05-03T10:46:34.553Z,20.87
2019-05-03T10:49:02.863Z,21.28
2019-05-03T10:51:32.832Z,22.26
2019-05-03T10:54:01.171Z,22.10
2019-05-03T10:56:31.084Z,21.27
2019-05-03T10:59:01.018Z,20.68
2019-05-03T11:01:47.209Z,19.83
2019-05-03T11:04:16.479Z,20.78
2019-05-03T11:06:45.798Z,21.31
2019-05-03T11:09:15.271Z,20.43
2019-05-03T11:11:45.275Z,20.97
2019-05-03T11:14:15.862Z,21.55
2019-05-03T11:16:46.055Z,20.50
2019-05-03T11:19:14.659Z,19.93
2019-05-03T11:21:45.329Z,19.68
2019-05-03T11:24:14.730Z,19.70
2019-05-03T11:26:45.391Z,19.82
2019-05-03T11:29:15.837Z,19.45
2019-05-03T11:34:44.958Z,19.46
2019-05-03T11:37:30.656Z,19.30
2019-05-03T11:39:58.922Z,19.26
2019-05-03T11:42:27.181Z,19.77
2019-05-03T11:44:55.473Z,21.01
2019-05-03T11:47:25.585Z,21.36
2019-05-03T11:49:54.835Z,21.59
2019-05-03T11:52:29.844Z,21.73
2019-05-03T11:54:59.163Z,22.07
2019-05-03T11:57:28.145Z,21.46
2019-05-03T11:59:58.383Z,21.54
2019-05-03T12:02:31.489Z,20.79
2019-05-03T12:05:20.520Z,20.57
2019-05-03T12:07:48.805Z,20.93
2019-05-03T12:10:32.472Z,20.79
2019-05-03T12:12:49.378Z,20.79
2019-05-03T12:15:17.863Z,20.62
2019-05-03T12:17:54.373Z,20.74
2019-05-03T12:20:20.727Z,20.81
2019-05-03T12:22:49.912Z,21.54
2019-05-03T12:25:19.569Z,21.68
2019-05-03T12:27:50.485Z,21.27
2019-05-03T12:30:27.430Z,21.85
2019-05-03T12:32:54.693Z,22.88
2019-05-03T12:35:24.646Z,20.72
2019-05-03T12:37:55.360Z,20.83
2019-05-03T12:40:23.130Z,22.00
2019-05-03T12:42:55.231Z,22.20
2019-05-03T12:45:24.773Z,24.34
2019-05-03T12:47:55.676Z,25.08
2019-05-03T12:50:25.210Z,25.01
2019-05-03T12:52:55.411Z,25.14
2019-05-03T12:55:24.757Z,27.91
2019-05-03T12:57:55.361Z,29.42
2019-05-03T13:00:31.863Z,30.06
2019-05-03T13:03:04.659Z,28.57
2019-05-03T13:05:32.943Z,28.79
2019-05-03T13:08:22.154Z,26.18
2019-05-03T13:10:50.479Z,23.11
2019-05-03T13:13:18.791Z,23.49
2019-05-03T13:15:47.138Z,22.82
2019-05-03T13:18:15.749Z,23.04
2019-05-03T13:20:45.347Z,23.74
2019-05-03T13:23:13.869Z,22.96
2019-05-03T13:25:44.739Z,21.98
2019-05-03T13:28:15.344Z,20.75
2019-05-03T13:30:56.212Z,21.51
2019-05-03T13:33:29.170Z,23.06
2019-05-03T13:35:57.542Z,25.22
2019-05-03T13:38:45.371Z,27.68
2019-05-03T13:41:15.627Z,27.87
2019-05-03T13:43:45.473Z,26.23
2019-05-03T13:46:15.677Z,25.53
2019-05-03T13:48:49.080Z,24.46
2019-05-03T13:51:16.287Z,24.30
2019-05-03T13:53:50.287Z,22.31
2019-05-03T13:56:19.594Z,22.78
2019-05-03T13:58:47.862Z,22.22
2019-05-03T14:01:16.194Z,21.11
2019-05-03T14:03:45.253Z,21.01
2019-05-03T14:06:20.024Z,20.94
2019-05-03T14:09:02.373Z,21.49
2019-05-03T14:11:32.404Z,22.19
2019-05-03T14:14:00.678Z,22.71
2019-05-03T14:16:29.960Z,25.66
2019-05-03T14:18:59.914Z,25.45
2019-05-03T14:21:30.816Z,26.97
2019-05-03T14:24:15.775Z,28.95
2019-05-03T14:26:44.918Z,26.66
2019-05-03T14:29:14.930Z,23.59
2019-05-03T14:31:45.471Z,23.03
2019-05-03T14:34:16.953Z,25.50
2019-05-03T14:36:44.965Z,23.66
2019-05-03T14:39:15.061Z,24.00
2019-05-03T14:41:46.536Z,23.07
2019-05-03T14:44:15.584Z,24.42
2019-05-03T14:46:45.674Z,24.21
2019-05-03T14:49:14.817Z,24.66
2019-05-03T14:51:45.681Z,26.00
2019-05-03T14:54:14.569Z,27.02
2019-05-03T14:56:50.926Z,25.05
2019-05-03T14:59:20.850Z,23.22
2019-05-03T15:01:50.779Z,22.45
2019-05-03T15:04:19.056Z,26.89
2019-05-03T15:06:47.338Z,27.94
2019-05-03T15:09:18.611Z,24.61
2019-05-03T15:11:45.612Z,23.26
2019-05-03T15:14:14.569Z,22.38
2019-05-03T15:16:44.904Z,25.07
2019-05-03T15:19:14.819Z,24.27
2019-05-03T15:21:45.154Z,23.57
2019-05-03T15:24:14.564Z,23.00
2019-05-03T15:26:44.745Z,23.20
2019-05-03T15:29:15.426Z,23.39
2019-05-03T15:31:44.740Z,22.83
2019-05-03T15:34:15.096Z,22.12
2019-05-03T15:36:45.032Z,21.73
2019-05-03T15:39:15.251Z,21.83
2019-05-03T15:41:45.475Z,22.23
2019-05-03T15:44:18.179Z,21.85
2019-05-03T15:46:48.086Z,22.06
2019-05-03T15:49:25.461Z,21.89
2019-05-03T15:51:53.916Z,21.74
2019-05-03T15:54:24.548Z,22.03
2019-05-03T15:56:54.260Z,24.82
2019-05-03T15:59:24.424Z,27.02
2019-05-03T16:01:56.808Z,22.33
2019-05-03T16:04:26.252Z,22.53
2019-05-03T16:06:55.439Z,22.53
2019-05-03T16:09:24.591Z,22.51
2019-05-03T16:11:52.984Z,21.32
2019-05-03T16:14:24.547Z,21.56
2019-05-03T16:16:54.637Z,21.68
2019-05-03T16:19:24.295Z,21.36
2019-05-03T16:21:54.384Z,22.44
2019-05-03T16:24:24.999Z,21.88
2019-05-03T16:27:06.961Z,21.42
2019-05-03T16:29:36.281Z,21.83
2019-05-03T16:32:05.190Z,21.59
2019-05-03T16:34:35.014Z,21.10
2019-05-03T16:37:04.368Z,21.08
2019-05-03T16:39:32.712Z,21.92
2019-05-03T16:42:00.979Z,21.97
2019-05-03T16:44:29.279Z,21.91
2019-05-03T16:46:57.543Z,21.17
2019-05-03T16:49:25.810Z,21.37
2019-05-03T16:51:54.888Z,21.45
2019-05-03T16:54:25.288Z,21.79
2019-05-03T16:56:54.929Z,21.16
2019-05-03T16:59:24.792Z,21.06
2019-05-03T17:01:55.090Z,21.79
2019-05-03T17:04:36.759Z,21.43
2019-05-03T17:07:09.281Z,21.54
2019-05-03T17:09:55.270Z,21.28
2019-05-03T17:12:25.697Z,20.70
2019-05-03T17:14:54.351Z,20.83
2019-05-03T17:17:25.234Z,20.20
2019-05-03T17:19:55.095Z,20.83
2019-05-03T17:22:25.203Z,20.97
2019-05-03T17:24:53.554Z,20.66
2019-05-03T17:27:21.841Z,20.27
2019-05-03T17:29:50.208Z,19.67
2019-05-03T17:32:18.476Z,20.71
2019-05-03T17:34:46.755Z,20.69
2019-05-03T17:37:15.041Z,20.76
2019-05-03T17:39:45.498Z,20.64
2019-05-03T17:42:27.494Z,20.45
2019-05-03T17:44:55.766Z,20.33
2019-05-03T17:47:25.593Z,21.01
2019-05-03T17:49:54.680Z,20.02
2019-05-03T17:52:42.525Z,20.18
2019-05-03T17:55:29.533Z,19.92
2019-05-03T17:58:01.921Z,19.49
2019-05-03T18:00:36.000Z,19.28
2019-05-03T18:03:09.905Z,19.51
2019-05-03T18:05:54.864Z,19.93
2019-05-03T18:08:30.531Z,19.84
2019-05-03T18:11:00.459Z,20.18
2019-05-03T18:13:28.848Z,19.62
2019-05-03T18:15:57.129Z,19.83
2019-05-03T18:18:25.489Z,19.76
2019-05-03T18:20:55.489Z,20.31
2019-05-03T18:23:24.636Z,20.22
2019-05-03T18:25:54.846Z,20.37
2019-05-03T18:28:24.979Z,19.91
2019-05-03T18:30:54.701Z,20.28
2019-05-03T18:33:24.730Z,19.49
2019-05-03T18:35:54.643Z,20.12
2019-05-03T18:38:25.284Z,20.12
2019-05-03T18:40:55.298Z,19.79
2019-05-03T18:43:28.021Z,20.18
2019-05-03T18:45:58.058Z,20.07
2019-05-03T18:48:26.707Z,19.45
2019-05-03T18:50:55.016Z,19.18
2019-05-03T18:53:25.056Z,19.59
2019-05-03T18:55:55.198Z,19.72
2019-05-03T18:58:24.392Z,19.61
2019-05-03T19:00:54.754Z,19.96
2019-05-03T19:03:25.009Z,19.85
2019-05-03T19:05:55.524Z,19.35
2019-05-03T19:08:26.437Z,19.40
2019-05-03T19:10:58.755Z,19.40
2019-05-03T19:13:31.717Z,19.71
2019-05-03T19:16:01.802Z,19.61
2019-05-03T19:18:31.720Z,19.44
2019-05-03T19:21:00.002Z,19.45
2019-05-03T19:23:28.268Z,19.33
2019-05-03T19:25:56.616Z,19.45
2019-05-03T19:28:26.819Z,18.96
2019-05-03T19:30:55.209Z,18.95
2019-05-03T19:33:24.592Z,19.30
2019-05-03T19:35:54.897Z,18.97
2019-05-03T19:38:24.588Z,18.79
2019-05-03T19:40:54.698Z,18.91
2019-05-03T19:43:24.394Z,18.93
2019-05-03T19:45:53.138Z,19.13
2019-05-03T19:48:21.441Z,18.57
2019-05-03T19:50:49.720Z,18.52
2019-05-03T19:53:19.642Z,18.68
2019-05-03T19:55:50.800Z,18.74
2019-05-03T19:58:19.422Z,18.95
2019-05-03T20:00:58.273Z,18.98
2019-05-03T20:03:37.051Z,18.88
2019-05-03T20:06:07.008Z,18.53
2019-05-03T20:08:37.038Z,18.67
2019-05-03T20:11:15.329Z,19.23
2019-05-03T20:13:45.808Z,18.43
2019-05-03T20:16:15.772Z,18.77
2019-05-03T20:18:45.395Z,18.93
2019-05-03T20:21:14.906Z,19.15
2019-05-03T20:23:46.710Z,18.81
2019-05-03T20:26:14.996Z,18.84
2019-05-03T20:28:44.911Z,18.71
2019-05-03T20:31:13.675Z,18.79
2019-05-03T20:33:42.028Z,18.86
2019-05-03T20:36:10.306Z,18.44
2019-05-03T20:38:38.610Z,18.69
2019-05-03T20:41:07.044Z,17.82
2019-05-03T20:43:36.972Z,17.69
2019-05-03T20:46:10.700Z,18.23
2019-05-03T20:48:40.020Z,17.89
2019-05-03T20:51:08.302Z,17.84
2019-05-03T20:53:36.599Z,17.49
2019-05-03T20:56:05.300Z,17.50
2019-05-03T20:58:35.663Z,17.62
2019-05-03T21:01:05.006Z,17.94
2019-05-03T21:03:33.328Z,17.65
2019-05-03T21:06:02.505Z,17.62
2019-05-03T21:08:31.354Z,16.94
2019-05-03T21:10:59.634Z,16.95
2019-05-03T21:13:39.190Z,17.68
2019-05-03T21:16:08.521Z,17.28
2019-05-03T21:18:50.214Z,17.49
2019-05-03T21:21:20.128Z,17.34
2019-05-03T21:24:01.980Z,17.23
2019-05-03T21:26:30.244Z,17.47
2019-05-03T21:28:58.494Z,17.23
2019-05-03T21:31:26.782Z,16.69
2019-05-03T21:33:55.315Z,17.49
2019-05-03T21:36:29.683Z,18.18
2019-05-03T21:39:05.321Z,17.61
2019-05-03T21:41:35.209Z,17.87
2019-05-03T21:44:04.922Z,18.16
2019-05-03T21:46:37.591Z,18.16
2019-05-03T21:49:19.425Z,18.00
2019-05-03T21:51:47.797Z,18.21
2019-05-03T21:54:16.072Z,17.90
2019-05-03T21:56:44.780Z,17.66
2019-05-03T21:59:14.059Z,17.43
2019-05-03T22:01:45.415Z,17.53
2019-05-03T22:04:15.624Z,18.00
2019-05-03T22:06:44.475Z,18.20
2019-05-03T22:09:12.798Z,18.30
2019-05-03T22:11:41.060Z,18.18
2019-05-03T22:14:10.967Z,17.65
2019-05-03T22:16:40.890Z,17.68
2019-05-03T22:19:09.143Z,17.06
2019-05-03T22:21:50.855Z,16.49
2019-05-03T22:24:26.709Z,16.99
2019-05-03T22:26:59.788Z,16.83
2019-05-03T22:29:28.042Z,16.63
2019-05-03T22:31:56.347Z,16.66
2019-05-03T22:34:25.676Z,17.03
2019-05-03T22:36:54.846Z,16.91
2019-05-03T22:39:24.977Z,16.77
2019-05-03T22:41:53.374Z,16.97
2019-05-03T22:44:21.700Z,17.18
2019-05-03T22:46:50.059Z,17.36
2019-05-03T22:49:18.314Z,17.12
2019-05-03T22:51:46.614Z,17.28
2019-05-03T22:54:15.373Z,17.08
2019-05-03T22:56:44.732Z,16.91
2019-05-03T22:59:14.923Z,17.52
2019-05-03T23:01:45.525Z,16.96
2019-05-03T23:04:14.699Z,17.00
2019-05-03T23:06:46.626Z,16.50
2019-05-03T23:09:15.671Z,16.26
2019-05-03T23:11:45.041Z,16.48
2019-05-03T23:14:15.086Z,16.79
2019-05-03T23:16:44.859Z,16.62
2019-05-03T23:19:14.889Z,16.66
2019-05-03T23:21:50.820Z,16.93
2019-05-03T23:24:20.051Z,16.83
2019-05-03T23:26:48.338Z,16.38
2019-05-03T23:29:16.605Z,16.58
2019-05-03T23:31:44.922Z,16.79
2019-05-03T23:34:13.226Z,16.98
2019-05-03T23:36:41.601Z,17.10
2019-05-03T23:39:09.881Z,16.80
2019-05-03T23:41:38.158Z,16.88
2019-05-03T23:44:06.502Z,17.48
2019-05-03T23:46:39.460Z,17.89
2019-05-03T23:49:07.752Z,17.37
2019-05-03T23:51:50.004Z,17.35
2019-05-03T23:54:18.523Z,17.80
2019-05-03T23:57:00.762Z,18.00
2019-05-03T23:59:37.712Z,17.87
